sensor_id;sensor_type;location;lat;lon;timestamp;pressure;altitude;pressure_sealevel;temperature;humidity
6090;BME280;3073;42.660;23.316;2023-02-01T00:01:40;94601.03;;;1.74;100.00
6090;BME280;3073;42.660;23.316;2023-02-01T00:04:07;94594.63;;;1.71;100.00
6090;BME280;3073;42.660;23.316;2023-02-01T00:06:34;94594.75;;;1.63;100.00
6090;BME280;3073;42.660;23.316;2023-02-01T00:09:01;94598.72;;;1.72;100.00
6090;BME280;3073;42.660;23.316;2023-02-01T00:11:30;94603.06;;;1.64;100.00
6090;BME280;3073;42.660;23.316;2023-02-01T00:13:57;94604.41;;;1.60;100.00
6090;BME280;3073;42.660;23.316;2023-02-01T00:16:26;94597.84;;;1.44;100.00
6090;BME280;3073;42.660;23.316;2023-02-01T00:18:57;94596.53;;;1.48;100.00
6090;BME280;3073;42.660;23.316;2023-02-01T00:21:25;94597.50;;;1.68;100.00
6090;BME280;3073;42.660;23.316;2023-02-01T00:23:51;94597.53;;;1.53;100.00
6090;BME280;3073;42.660;23.316;2023-02-01T00:26:21;94595.53;;;1.64;100.00
6090;BME280;3073;42.660;23.316;2023-02-01T00:28:50;94594.72;;;1.42;100.00
6090;BME280;3073;42.660;23.316;2023-02-01T00:31:17;94591.06;;;1.44;100.00
6090;BME280;3073;42.660;23.316;2023-02-01T00:33:50;94593.34;;;1.39;100.00
6090;BME280;3073;42.660;23.316;2023-02-01T00:36:23;94594.38;;;1.45;100.00
6090;BME280;3073;42.660;23.316;2023-02-01T00:38:50;94587.56;;;1.39;100.00
6090;BME280;3073;42.660;23.316;2023-02-01T00:41:18;94595.88;;;1.61;100.00
6090;BME280;3073;42.660;23.316;2023-02-01T00:43:47;94590.59;;;1.34;100.00
6090;BME280;3073;42.660;23.316;2023-02-01T00:46:17;94590.66;;;1.41;100.00
6090;BME280;3073;42.660;23.316;2023-02-01T00:48:44;94579.16;;;1.32;100.00
6090;BME280;3073;42.660;23.316;2023-02-01T00:51:13;94587.56;;;1.39;100.00
6090;BME280;3073;42.660;23.316;2023-02-01T00:53:41;94575.94;;;1.38;100.00
6090;BME280;3073;42.660;23.316;2023-02-01T00:56:08;94580.28;;;1.29;100.00
6090;BME280;3073;42.660;23.316;2023-02-01T00:58:35;94576.22;;;1.28;100.00
6090;BME280;3073;42.660;23.316;2023-02-01T01:01:04;94576.47;;;1.33;100.00
6090;BME280;3073;42.660;23.316;2023-02-01T01:03:34;94581.31;;;1.35;100.00
6090;BME280;3073;42.660;23.316;2023-02-01T01:06:06;94583.69;;;1.07;100.00
6090;BME280;3073;42.660;23.316;2023-02-01T01:08:34;94577.91;;;1.42;100.00
6090;BME280;3073;42.660;23.316;2023-02-01T01:11:04;94575.94;;;1.38;100.00
6090;BME280;3073;42.660;23.316;2023-02-01T01:13:32;94586.31;;;1.49;100.00
6090;BME280;3073;42.660;23.316;2023-02-01T01:16:00;94576.84;;;1.51;100.00
6090;BME280;3073;42.660;23.316;2023-02-01T01:18:29;94567.91;;;1.28;100.00
6090;BME280;3073;42.660;23.316;2023-02-01T01:20:58;94578.72;;;1.28;100.00
6090;BME280;3073;42.660;23.316;2023-02-01T01:23:25;94567.31;;;1.26;100.00
6090;BME280;3073;42.660;23.316;2023-02-01T01:25:52;94569.00;;;1.40;100.00
6090;BME280;3073;42.660;23.316;2023-02-01T01:28:18;94573.97;;;1.54;100.00
6090;BME280;3073;42.660;23.316;2023-02-01T01:30:45;94564.97;;;1.24;100.00
6090;BME280;3073;42.660;23.316;2023-02-01T01:33:12;94563.78;;;1.41;100.00
6090;BME280;3073;42.660;23.316;2023-02-01T01:35:39;94576.66;;;1.32;100.00
6090;BME280;3073;42.660;23.316;2023-02-01T01:38:09;94580.94;;;1.52;100.00
6090;BME280;3073;42.660;23.316;2023-02-01T01:40:37;94586.84;;;1.30;100.00
6090;BME280;3073;42.660;23.316;2023-02-01T01:43:12;94583.78;;;1.14;100.00
6090;BME280;3073;42.660;23.316;2023-02-01T01:45:39;94585.81;;;1.39;100.00
6090;BME280;3073;42.660;23.316;2023-02-01T01:48:09;94592.84;;;1.29;100.00
6090;BME280;3073;42.660;23.316;2023-02-01T01:50:42;94590.00;;;1.18;100.00
6090;BME280;3073;42.660;23.316;2023-02-01T01:53:14;94586.56;;;1.04;100.00
6090;BME280;3073;42.660;23.316;2023-02-01T01:55:44;94580.16;;;1.16;100.00
6090;BME280;3073;42.660;23.316;2023-02-01T01:58:14;94587.56;;;1.24;100.00
6090;BME280;3073;42.660;23.316;2023-02-01T02:00:42;94591.78;;;1.02;100.00
6090;BME280;3073;42.660;23.316;2023-02-01T02:03:14;94585.88;;;1.10;100.00
6090;BME280;3073;42.660;23.316;2023-02-01T02:05:43;94587.03;;;0.93;100.00
6090;BME280;3073;42.660;23.316;2023-02-01T02:08:12;94571.06;;;1.00;100.00
6090;BME280;3073;42.660;23.316;2023-02-01T02:10:39;94576.97;;;0.93;100.00
6090;BME280;3073;42.660;23.316;2023-02-01T02:13:23;94575.22;;;0.93;100.00
6090;BME280;3073;42.660;23.316;2023-02-01T02:16:00;94575.69;;;0.68;100.00
6090;BME280;3073;42.660;23.316;2023-02-01T02:18:34;94576.91;;;0.72;100.00
6090;BME280;3073;42.660;23.316;2023-02-01T02:21:14;94573.44;;;0.58;100.00
6090;BME280;3073;42.660;23.316;2023-02-01T02:24:06;94558.72;;;0.55;100.00
6090;BME280;3073;42.660;23.316;2023-02-01T02:35:55;94568.84;;;0.62;100.00
6090;BME280;3073;42.660;23.316;2023-02-01T02:38:31;94576.91;;;0.72;100.00
6090;BME280;3073;42.660;23.316;2023-02-01T02:41:04;94572.66;;;0.58;100.00
6090;BME280;3073;42.660;23.316;2023-02-01T02:43:37;94570.94;;;0.73;100.00
6090;BME280;3073;42.660;23.316;2023-02-01T02:46:29;94563.91;;;0.68;100.00
6090;BME280;3073;42.660;23.316;2023-02-01T02:49:21;94566.41;;;0.83;100.00
6090;BME280;3073;42.660;23.316;2023-02-01T02:51:53;94564.34;;;0.86;100.00
6090;BME280;3073;42.660;23.316;2023-02-01T02:54:51;94565.38;;;0.92;100.00
6090;BME280;3073;42.660;23.316;2023-02-01T02:57:24;94569.19;;;0.88;100.00
6090;BME280;3073;42.660;23.316;2023-02-01T03:00:12;94565.72;;;0.89;100.00
6090;BME280;3073;42.660;23.316;2023-02-01T03:02:58;94559.72;;;1.04;100.00
6090;BME280;3073;42.660;23.316;2023-02-01T03:05:45;94570.81;;;1.10;100.00
6090;BME280;3073;42.660;23.316;2023-02-01T03:08:14;94571.06;;;1.00;100.00
6090;BME280;3073;42.660;23.316;2023-02-01T03:10:47;94578.53;;;0.94;100.00
6090;BME280;3073;42.660;23.316;2023-02-01T03:13:24;94581.53;;;1.04;100.00
6090;BME280;3073;42.660;23.316;2023-02-01T03:15:58;94585.88;;;1.10;100.00
6090;BME280;3073;42.660;23.316;2023-02-01T03:18:30;94588.13;;;1.05;100.00
6090;BME280;3073;42.660;23.316;2023-02-01T03:21:00;94593.00;;;1.07;100.00
6090;BME280;3073;42.660;23.316;2023-02-01T03:23:33;94596.38;;;0.99;100.00
6090;BME280;3073;42.660;23.316;2023-02-01T03:26:01;94597.22;;;1.06;100.00
6090;BME280;3073;42.660;23.316;2023-02-01T03:28:32;94598.44;;;1.10;100.00
6090;BME280;3073;42.660;23.316;2023-02-01T03:31:01;94592.22;;;1.06;100.00
6090;BME280;3073;42.660;23.316;2023-02-01T03:33:30;94598.53;;;0.87;100.00
6090;BME280;3073;42.660;23.316;2023-02-01T03:36:07;94602.59;;;1.03;100.00
6090;BME280;3073;42.660;23.316;2023-02-01T03:38:43;94606.50;;;0.91;100.00
6090;BME280;3073;42.660;23.316;2023-02-01T03:41:19;94596.44;;;0.91;100.00
6090;BME280;3073;42.660;23.316;2023-02-01T03:43:54;94594.81;;;0.98;100.00
6090;BME280;3073;42.660;23.316;2023-02-01T03:46:26;94588.75;;;0.92;100.00
6090;BME280;3073;42.660;23.316;2023-02-01T03:49:00;94584.94;;;0.96;100.00
6090;BME280;3073;42.660;23.316;2023-02-01T03:51:30;94589.44;;;1.01;100.00
6090;BME280;3073;42.660;23.316;2023-02-01T03:54:02;94590.56;;;1.13;100.00
6090;BME280;3073;42.660;23.316;2023-02-01T03:56:31;94589.91;;;1.26;100.00
6090;BME280;3073;42.660;23.316;2023-02-01T03:59:03;94591.00;;;1.02;100.00
6090;BME280;3073;42.660;23.316;2023-02-01T04:01:30;94593.09;;;1.34;100.00
6090;BME280;3073;42.660;23.316;2023-02-01T04:03:58;94593.22;;;1.26;100.00
6090;BME280;3073;42.660;23.316;2023-02-01T04:06:26;94596.94;;;1.16;100.00
6090;BME280;3073;42.660;23.316;2023-02-01T04:08:53;94593.66;;;1.30;100.00
6090;BME280;3073;42.660;23.316;2023-02-01T04:11:21;94589.94;;;1.11;100.00
6090;BME280;3073;42.660;23.316;2023-02-01T04:13:49;94587.19;;;1.06;100.00
6090;BME280;3073;42.660;23.316;2023-02-01T04:16:16;94589.72;;;1.27;100.00
6090;BME280;3073;42.660;23.316;2023-02-01T04:18:46;94600.56;;;1.28;100.00
6090;BME280;3073;42.660;23.316;2023-02-01T04:21:13;94598.91;;;1.20;100.00
6090;BME280;3073;42.660;23.316;2023-02-01T04:23:40;94604.41;;;1.09;100.00
6090;BME280;3073;42.660;23.316;2023-02-01T04:26:07;94601.78;;;1.17;100.00
6090;BME280;3073;42.660;23.316;2023-02-01T04:28:36;94593.66;;;1.15;100.00
6090;BME280;3073;42.660;23.316;2023-02-01T04:31:03;94604.56;;;1.22;100.00
6090;BME280;3073;42.660;23.316;2023-02-01T04:33:30;94600.84;;;1.03;100.00
6090;BME280;3073;42.660;23.316;2023-02-01T04:35:57;94603.78;;;1.22;100.00
6090;BME280;3073;42.660;23.316;2023-02-01T04:38:24;94594.16;;;1.25;100.00
6090;BME280;3073;42.660;23.316;2023-02-01T04:40:50;94599.97;;;1.11;100.00
6090;BME280;3073;42.660;23.316;2023-02-01T04:43:18;94593.72;;;1.36;100.00
6090;BME280;3073;42.660;23.316;2023-02-01T04:45:52;94602.91;;;1.29;100.00
6090;BME280;3073;42.660;23.316;2023-02-01T04:48:21;94600.34;;;1.44;100.00
6090;BME280;3073;42.660;23.316;2023-02-01T04:50:48;94605.81;;;1.47;100.00
6090;BME280;3073;42.660;23.316;2023-02-01T04:53:16;94614.25;;;1.40;100.00
6090;BME280;3073;42.660;23.316;2023-02-01T04:55:43;94610.44;;;1.29;100.00
6090;BME280;3073;42.660;23.316;2023-02-01T04:58:10;94613.47;;;1.39;100.00
6090;BME280;3073;42.660;23.316;2023-02-01T05:00:37;94624.91;;;1.27;100.00
6090;BME280;3073;42.660;23.316;2023-02-01T05:03:05;94618.13;;;1.42;100.00
6090;BME280;3073;42.660;23.316;2023-02-01T05:05:32;94625.13;;;1.47;100.00
6090;BME280;3073;42.660;23.316;2023-02-01T05:07:59;94629.00;;;1.28;100.00
6090;BME280;3073;42.660;23.316;2023-02-01T05:10:26;94629.25;;;1.33;100.00
6090;BME280;3073;42.660;23.316;2023-02-01T05:12:53;94630.88;;;1.41;100.00
6090;BME280;3073;42.660;23.316;2023-02-01T05:15:37;94637.53;;;1.48;100.00
6090;BME280;3073;42.660;23.316;2023-02-01T05:18:06;94637.44;;;1.57;100.00
6090;BME280;3073;42.660;23.316;2023-02-01T05:20:33;94639.97;;;1.42;100.00
6090;BME280;3073;42.660;23.316;2023-02-01T05:23:00;94645.66;;;1.50;100.00
6090;BME280;3073;42.660;23.316;2023-02-01T05:25:27;94631.78;;;1.54;100.00
6090;BME280;3073;42.660;23.316;2023-02-01T05:27:54;94634.72;;;1.58;100.00
6090;BME280;3073;42.660;23.316;2023-02-01T05:30:21;94622.09;;;1.51;100.00
6090;BME280;3073;42.660;23.316;2023-02-01T05:32:49;94628.75;;;1.23;100.00
6090;BME280;3073;42.660;23.316;2023-02-01T05:35:18;94642.31;;;1.43;100.00
6090;BME280;3073;42.660;23.316;2023-02-01T05:37:45;94637.63;;;1.40;100.00
6090;BME280;3073;42.660;23.316;2023-02-01T05:40:12;94634.94;;;1.57;100.00
6090;BME280;3073;42.660;23.316;2023-02-01T05:42:39;94632.19;;;1.73;100.00
6090;BME280;3073;42.660;23.316;2023-02-01T05:45:07;94639.94;;;1.57;100.00
6090;BME280;3073;42.660;23.316;2023-02-01T05:47:34;94628.56;;;1.61;100.00
6090;BME280;3073;42.660;23.316;2023-02-01T05:50:03;94634.78;;;1.43;100.00
6090;BME280;3073;42.660;23.316;2023-02-01T05:52:34;94632.94;;;1.52;100.00
6090;BME280;3073;42.660;23.316;2023-02-01T05:55:02;94620.78;;;1.55;100.00
6090;BME280;3073;42.660;23.316;2023-02-01T05:57:29;94624.66;;;1.73;100.00
6090;BME280;3073;42.660;23.316;2023-02-01T05:59:56;94628.47;;;1.69;100.00
6090;BME280;3073;42.660;23.316;2023-02-01T06:02:23;94625.53;;;1.65;100.00
6090;BME280;3073;42.660;23.316;2023-02-01T06:04:51;94636.22;;;1.52;100.00
6090;BME280;3073;42.660;23.316;2023-02-01T06:07:19;94639.75;;;1.58;100.00
6090;BME280;3073;42.660;23.316;2023-02-01T06:09:47;94636.38;;;1.66;100.00
6090;BME280;3073;42.660;23.316;2023-02-01T06:12:28;94640.16;;;1.76;100.00
6090;BME280;3073;42.660;23.316;2023-02-01T06:14:58;94643.63;;;1.75;100.00
6090;BME280;3073;42.660;23.316;2023-02-01T06:17:25;94640.34;;;1.96;100.00
6090;BME280;3073;42.660;23.316;2023-02-01T06:19:52;94633.22;;;1.99;100.00
6090;BME280;3073;42.660;23.316;2023-02-01T06:22:19;94647.34;;;2.00;100.00
6090;BME280;3073;42.660;23.316;2023-02-01T06:24:48;94655.00;;;2.14;100.00
6090;BME280;3073;42.660;23.316;2023-02-01T06:27:16;94659.69;;;2.17;100.00
6090;BME280;3073;42.660;23.316;2023-02-01T06:29:43;94653.72;;;1.96;100.00
6090;BME280;3073;42.660;23.316;2023-02-01T06:35:16;94661.00;;;1.91;100.00
6090;BME280;3073;42.660;23.316;2023-02-01T06:37:43;94651.84;;;2.05;100.00
6090;BME280;3073;42.660;23.316;2023-02-01T06:40:12;94650.41;;;1.96;100.00
6090;BME280;3073;42.660;23.316;2023-02-01T06:42:39;94652.94;;;1.96;100.00
6090;BME280;3073;42.660;23.316;2023-02-01T06:45:07;94664.66;;;1.89;100.00
6090;BME280;3073;42.660;23.316;2023-02-01T06:47:34;94664.66;;;1.89;100.00
6090;BME280;3073;42.660;23.316;2023-02-01T06:50:01;94671.38;;;2.03;100.00
6090;BME280;3073;42.660;23.316;2023-02-01T06:52:28;94676.03;;;2.27;100.00
6090;BME280;3073;42.660;23.316;2023-02-01T06:54:55;94677.66;;;2.14;100.00
6090;BME280;3073;42.660;23.316;2023-02-01T06:57:23;94678.94;;;2.03;100.00
6090;BME280;3073;42.660;23.316;2023-02-01T06:59:50;94682.88;;;2.12;100.00
6090;BME280;3073;42.660;23.316;2023-02-01T07:02:17;94684.56;;;2.05;100.00
6090;BME280;3073;42.660;23.316;2023-02-01T07:04:44;94687.84;;;2.05;100.00
6090;BME280;3073;42.660;23.316;2023-02-01T07:07:11;94700.50;;;2.12;100.00
6090;BME280;3073;42.660;23.316;2023-02-01T07:09:39;94698.41;;;2.16;100.00
6090;BME280;3073;42.660;23.316;2023-02-01T07:12:09;94698.53;;;2.29;100.00
6090;BME280;3073;42.660;23.316;2023-02-01T07:14:38;94706.97;;;2.42;100.00
6090;BME280;3073;42.660;23.316;2023-02-01T07:17:05;94705.34;;;2.35;100.00
6090;BME280;3073;42.660;23.316;2023-02-01T07:19:32;94706.81;;;2.50;100.00
6090;BME280;3073;42.660;23.316;2023-02-01T07:22:00;94704.94;;;2.52;100.00
6090;BME280;3073;42.660;23.316;2023-02-01T07:24:28;94716.25;;;2.42;100.00
6090;BME280;3073;42.660;23.316;2023-02-01T07:26:56;94706.06;;;2.29;100.00
6090;BME280;3073;42.660;23.316;2023-02-01T07:29:23;94710.91;;;2.51;100.00
6090;BME280;3073;42.660;23.316;2023-02-01T07:31:52;94709.53;;;2.28;100.00
6090;BME280;3073;42.660;23.316;2023-02-01T07:34:24;94713.09;;;2.33;100.00
6090;BME280;3073;42.660;23.316;2023-02-01T07:36:50;94717.41;;;2.39;100.00
6090;BME280;3073;42.660;23.316;2023-02-01T07:39:17;94715.06;;;2.59;100.00
6090;BME280;3073;42.660;23.316;2023-02-01T07:41:45;94718.94;;;2.62;100.00
6090;BME280;3073;42.660;23.316;2023-02-01T07:44:12;94718.41;;;2.66;100.00
6090;BME280;3073;42.660;23.316;2023-02-01T07:46:39;94725.28;;;2.57;100.00
6090;BME280;3073;42.660;23.316;2023-02-01T07:49:07;94724.50;;;2.57;100.00
6090;BME280;3073;42.660;23.316;2023-02-01T07:51:34;94734.16;;;2.75;100.00
6090;BME280;3073;42.660;23.316;2023-02-01T07:54:01;94738.19;;;2.69;100.00
6090;BME280;3073;42.660;23.316;2023-02-01T07:56:28;94734.25;;;2.60;100.00
6090;BME280;3073;42.660;23.316;2023-02-01T07:58:55;94733.81;;;2.56;100.00
6090;BME280;3073;42.660;23.316;2023-02-01T08:01:25;94742.44;;;2.69;100.00
6090;BME280;3073;42.660;23.316;2023-02-01T08:03:54;94742.81;;;2.87;100.00
6090;BME280;3073;42.660;23.316;2023-02-01T08:06:23;94749.06;;;2.70;100.00
6090;BME280;3073;42.660;23.316;2023-02-01T08:08:51;94744.78;;;2.70;100.00
6090;BME280;3073;42.660;23.316;2023-02-01T08:11:19;94755.72;;;2.84;100.00
6090;BME280;3073;42.660;23.316;2023-02-01T08:13:47;94757.25;;;2.78;100.00
6090;BME280;3073;42.660;23.316;2023-02-01T08:16:16;94746.91;;;2.67;100.00
6090;BME280;3073;42.660;23.316;2023-02-01T08:18:46;94742.56;;;2.82;100.00
6090;BME280;3073;42.660;23.316;2023-02-01T08:21:15;94744.34;;;2.88;100.00
6090;BME280;3073;42.660;23.316;2023-02-01T08:23:44;94739.59;;;2.99;100.00
6090;BME280;3073;42.660;23.316;2023-02-01T08:26:13;94749.56;;;2.86;100.00
6090;BME280;3073;42.660;23.316;2023-02-01T08:28:42;94733.03;;;3.05;100.00
6090;BME280;3073;42.660;23.316;2023-02-01T08:31:11;94743.16;;;3.11;100.00
6090;BME280;3073;42.660;23.316;2023-02-01T08:33:40;94745.41;;;3.00;100.00
6090;BME280;3073;42.660;23.316;2023-02-01T08:36:08;94744.53;;;3.14;100.00
6090;BME280;3073;42.660;23.316;2023-02-01T08:38:38;94753.53;;;3.23;100.00
6090;BME280;3073;42.660;23.316;2023-02-01T08:41:08;94741.75;;;3.02;100.00
6090;BME280;3073;42.660;23.316;2023-02-01T08:43:36;94740.06;;;3.09;100.00
6090;BME280;3073;42.660;23.316;2023-02-01T08:46:03;94744.59;;;3.27;100.00
6090;BME280;3073;42.660;23.316;2023-02-01T08:48:31;94730.72;;;3.38;100.00
6090;BME280;3073;42.660;23.316;2023-02-01T08:51:00;94735.53;;;3.33;100.00
6090;BME280;3073;42.660;23.316;2023-02-01T08:53:27;94727.19;;;3.67;98.77
6090;BME280;3073;42.660;23.316;2023-02-01T08:55:55;94721.09;;;3.54;95.79
6090;BME280;3073;42.660;23.316;2023-02-01T08:58:23;94731.53;;;3.86;94.24
6090;BME280;3073;42.660;23.316;2023-02-01T09:00:50;94724.38;;;3.96;91.97
6090;BME280;3073;42.660;23.316;2023-02-01T09:03:17;94733.75;;;4.15;92.21
6090;BME280;3073;42.660;23.316;2023-02-01T09:05:44;94735.88;;;4.18;91.51
6090;BME280;3073;42.660;23.316;2023-02-01T09:08:11;94744.22;;;4.12;91.27
6090;BME280;3073;42.660;23.316;2023-02-01T09:10:40;94740.13;;;4.04;91.59
6090;BME280;3073;42.660;23.316;2023-02-01T09:13:07;94743.19;;;3.87;91.47
6090;BME280;3073;42.660;23.316;2023-02-01T09:15:36;94729.66;;;4.14;91.60
6090;BME280;3073;42.660;23.316;2023-02-01T09:18:03;94739.63;;;4.35;89.16
6090;BME280;3073;42.660;23.316;2023-02-01T09:20:30;94742.19;;;4.61;89.02
6090;BME280;3073;42.660;23.316;2023-02-01T09:22:57;94748.44;;;4.79;85.16
6090;BME280;3073;42.660;23.316;2023-02-01T09:25:26;94750.94;;;4.72;85.26
6090;BME280;3073;42.660;23.316;2023-02-01T09:27:52;94745.84;;;4.39;86.14
6090;BME280;3073;42.660;23.316;2023-02-01T09:30:19;94752.50;;;4.53;84.79
6090;BME280;3073;42.660;23.316;2023-02-01T09:32:47;94728.22;;;4.79;84.24
6090;BME280;3073;42.660;23.316;2023-02-01T09:35:14;94729.78;;;4.80;82.73
6090;BME280;3073;42.660;23.316;2023-02-01T09:37:41;94725.88;;;5.03;81.34
6090;BME280;3073;42.660;23.316;2023-02-01T09:40:12;94718.09;;;4.98;80.00
6090;BME280;3073;42.660;23.316;2023-02-01T09:42:49;94719.66;;;5.06;79.52
6090;BME280;3073;42.660;23.316;2023-02-01T09:45:28;94720.06;;;4.77;79.96
6090;BME280;3073;42.660;23.316;2023-02-01T09:48:04;94710.13;;;5.79;75.98
6090;BME280;3073;42.660;23.316;2023-02-01T09:50:38;94719.53;;;7.03;71.82
6090;BME280;3073;42.660;23.316;2023-02-01T09:53:11;94705.56;;;6.07;72.36
6090;BME280;3073;42.660;23.316;2023-02-01T09:55:42;94700.56;;;5.87;71.25
6090;BME280;3073;42.660;23.316;2023-02-01T09:58:14;94697.47;;;5.79;71.49
6090;BME280;3073;42.660;23.316;2023-02-01T10:00:50;94683.94;;;6.04;69.75
6090;BME280;3073;42.660;23.316;2023-02-01T10:03:23;94689.22;;;6.90;68.84
6090;BME280;3073;42.660;23.316;2023-02-01T10:06:24;94694.13;;;7.28;65.97
6090;BME280;3073;42.660;23.316;2023-02-01T10:09:09;94696.41;;;7.11;64.22
6090;BME280;3073;42.660;23.316;2023-02-01T10:11:46;94702.84;;;6.64;64.49
6090;BME280;3073;42.660;23.316;2023-02-01T10:14:32;94686.09;;;7.97;62.61
6090;BME280;3073;42.660;23.316;2023-02-01T10:17:11;94684.41;;;8.39;61.78
6090;BME280;3073;42.660;23.316;2023-02-01T10:19:46;94675.66;;;8.35;59.21
6090;BME280;3073;42.660;23.316;2023-02-01T10:22:28;94668.50;;;9.60;57.96
6090;BME280;3073;42.660;23.316;2023-02-01T10:25:04;94669.34;;;9.02;58.14
6090;BME280;3073;42.660;23.316;2023-02-01T10:27:35;94655.66;;;9.66;56.40
6090;BME280;3073;42.660;23.316;2023-02-01T10:32:41;94651.06;;;9.40;55.26
6090;BME280;3073;42.660;23.316;2023-02-01T10:35:13;94645.31;;;9.33;54.86
6090;BME280;3073;42.660;23.316;2023-02-01T10:37:42;94654.94;;;9.82;54.42
6090;BME280;3073;42.660;23.316;2023-02-01T10:40:16;94647.72;;;10.08;53.63
6090;BME280;3073;42.660;23.316;2023-02-01T10:42:45;94644.38;;;10.19;53.38
6090;BME280;3073;42.660;23.316;2023-02-01T10:45:14;94643.69;;;9.67;53.70
6090;BME280;3073;42.660;23.316;2023-02-01T10:47:42;94632.94;;;8.55;56.16
6090;BME280;3073;42.660;23.316;2023-02-01T10:50:17;94644.53;;;6.64;59.16
6090;BME280;3073;42.660;23.316;2023-02-01T10:52:48;94654.47;;;6.41;61.32
6090;BME280;3073;42.660;23.316;2023-02-01T10:55:37;94646.75;;;5.98;63.03
6090;BME280;3073;42.660;23.316;2023-02-01T10:58:06;94640.91;;;6.54;62.19
6090;BME280;3073;42.660;23.316;2023-02-01T11:00:41;94633.66;;;7.43;61.17
6090;BME280;3073;42.660;23.316;2023-02-01T11:03:33;94639.66;;;8.08;59.30
6090;BME280;3073;42.660;23.316;2023-02-01T11:06:08;94641.28;;;8.33;57.95
6090;BME280;3073;42.660;23.316;2023-02-01T11:08:42;94637.88;;;7.79;59.05
6090;BME280;3073;42.660;23.316;2023-02-01T11:11:10;94641.63;;;8.36;57.15
6090;BME280;3073;42.660;23.316;2023-02-01T11:13:39;94644.09;;;8.66;57.14
6090;BME280;3073;42.660;23.316;2023-02-01T11:16:09;94631.06;;;8.74;55.73
6090;BME280;3073;42.660;23.316;2023-02-01T11:18:37;94630.47;;;9.18;55.33
6090;BME280;3073;42.660;23.316;2023-02-01T11:21:08;94633.94;;;8.77;55.98
6090;BME280;3073;42.660;23.316;2023-02-01T11:23:42;94636.31;;;9.54;54.67
6090;BME280;3073;42.660;23.316;2023-02-01T11:26:12;94620.97;;;8.44;55.73
6090;BME280;3073;42.660;23.316;2023-02-01T11:28:44;94610.50;;;8.75;56.19
6090;BME280;3073;42.660;23.316;2023-02-01T11:31:15;94609.53;;;8.23;56.34
6090;BME280;3073;42.660;23.316;2023-02-01T11:33:47;94595.34;;;9.04;55.53
6090;BME280;3073;42.660;23.316;2023-02-01T11:36:18;94612.06;;;8.76;56.25
6090;BME280;3073;42.660;23.316;2023-02-01T11:38:52;94611.63;;;9.31;55.02
6090;BME280;3073;42.660;23.316;2023-02-01T11:41:23;94627.59;;;8.45;54.41
6090;BME280;3073;42.660;23.316;2023-02-01T11:43:54;94614.38;;;8.25;55.63
6090;BME280;3073;42.660;23.316;2023-02-01T11:46:25;94619.31;;;7.31;57.49
6090;BME280;3073;42.660;23.316;2023-02-01T11:48:55;94602.25;;;7.86;56.99
6090;BME280;3073;42.660;23.316;2023-02-01T11:51:41;94604.41;;;8.00;56.97
6090;BME280;3073;42.660;23.316;2023-02-01T11:54:23;94592.16;;;8.09;56.67
6090;BME280;3073;42.660;23.316;2023-02-01T11:57:05;94595.66;;;8.08;56.23
6090;BME280;3073;42.660;23.316;2023-02-01T11:59:55;94604.53;;;8.93;56.14
6090;BME280;3073;42.660;23.316;2023-02-01T12:02:44;94581.09;;;9.31;54.08
6090;BME280;3073;42.660;23.316;2023-02-01T12:05:33;94585.97;;;9.32;54.42
6090;BME280;3073;42.660;23.316;2023-02-01T12:08:17;94584.91;;;9.17;54.34
6090;BME280;3073;42.660;23.316;2023-02-01T12:10:59;94581.59;;;9.05;54.73
6090;BME280;3073;42.660;23.316;2023-02-01T12:13:39;94594.25;;;8.53;54.66
6090;BME280;3073;42.660;23.316;2023-02-01T12:16:21;94583.72;;;8.50;56.70
6090;BME280;3073;42.660;23.316;2023-02-01T12:19:13;94579.47;;;8.20;56.64
6090;BME280;3073;42.660;23.316;2023-02-01T12:21:55;94577.97;;;8.54;55.31
6090;BME280;3073;42.660;23.316;2023-02-01T12:27:54;94584.38;;;8.45;56.59
6090;BME280;3073;42.660;23.316;2023-02-01T12:30:43;94580.28;;;9.14;55.20
6090;BME280;3073;42.660;23.316;2023-02-01T12:33:18;94584.84;;;9.40;54.97
6090;BME280;3073;42.660;23.316;2023-02-01T12:35:56;94575.72;;;9.16;54.85
6090;BME280;3073;42.660;23.316;2023-02-01T12:38:51;94590.00;;;9.57;54.21
6090;BME280;3073;42.660;23.316;2023-02-01T12:41:36;94585.44;;;8.26;55.00
6090;BME280;3073;42.660;23.316;2023-02-01T12:44:35;94581.53;;;9.28;54.57
6090;BME280;3073;42.660;23.316;2023-02-01T12:47:06;94589.41;;;9.66;53.57
6090;BME280;3073;42.660;23.316;2023-02-01T12:49:44;94577.41;;;8.99;53.53
6090;BME280;3073;42.660;23.316;2023-02-01T12:52:16;94587.53;;;9.22;54.19
6090;BME280;3073;42.660;23.316;2023-02-01T12:54:48;94577.66;;;8.62;54.91
6090;BME280;3073;42.660;23.316;2023-02-01T12:57:24;94580.56;;;9.17;53.73
6090;BME280;3073;42.660;23.316;2023-02-01T12:59:59;94582.84;;;8.56;55.14
6090;BME280;3073;42.660;23.316;2023-02-01T13:02:37;94572.06;;;9.12;54.08
6090;BME280;3073;42.660;23.316;2023-02-01T13:05:14;94579.72;;;9.00;53.82
6090;BME280;3073;42.660;23.316;2023-02-01T13:07:45;94560.91;;;9.13;53.69
6090;BME280;3073;42.660;23.316;2023-02-01T13:10:18;94563.47;;;8.90;53.17
6090;BME280;3073;42.660;23.316;2023-02-01T13:12:51;94572.09;;;9.00;53.98
6090;BME280;3073;42.660;23.316;2023-02-01T13:15:25;94575.28;;;8.26;54.44
6090;BME280;3073;42.660;23.316;2023-02-01T13:17:55;94578.09;;;8.59;53.04
6090;BME280;3073;42.660;23.316;2023-02-01T13:20:29;94576.75;;;9.71;51.96
6090;BME280;3073;42.660;23.316;2023-02-01T13:23:03;94574.06;;;9.10;51.63
6090;BME280;3073;42.660;23.316;2023-02-01T13:25:38;94572.41;;;10.00;51.64
6090;BME280;3073;42.660;23.316;2023-02-01T13:28:11;94573.22;;;8.69;52.85
6090;BME280;3073;42.660;23.316;2023-02-01T13:33:52;94584.47;;;7.97;53.37
6090;BME280;3073;42.660;23.316;2023-02-01T13:39:38;94573.16;;;7.04;54.42
6090;BME280;3073;42.660;23.316;2023-02-01T13:42:15;94578.19;;;7.10;55.45
6090;BME280;3073;42.660;23.316;2023-02-01T13:44:46;94573.03;;;6.99;56.03
6090;BME280;3073;42.660;23.316;2023-02-01T13:47:23;94578.78;;;7.24;55.99
6090;BME280;3073;42.660;23.316;2023-02-01T13:49:51;94582.31;;;7.41;54.96
6090;BME280;3073;42.660;23.316;2023-02-01T13:52:28;94579.19;;;7.87;54.63
6090;BME280;3073;42.660;23.316;2023-02-01T13:55:02;94582.41;;;8.47;53.40
6090;BME280;3073;42.660;23.316;2023-02-01T13:57:37;94575.25;;;9.19;52.08
6090;BME280;3073;42.660;23.316;2023-02-01T14:00:20;94584.28;;;8.87;52.71
6090;BME280;3073;42.660;23.316;2023-02-01T14:03:11;94580.31;;;8.03;53.45